Itapiranga, Brazil
Current Conditions -  °F | °C
As of 3:00 PM on Monday 20 Oct 2014 (Local Time) from SBCH Reporting Station
Few Clouds Few Clouds  
Wind Chill: 77°   Ceiling: Unl
Heat Index: 79°   Visibility: 6mi
Dew Point: 57°   Wind: 9mph
Humidity: 50%   Direction: 130°SE
Pressure: 30.06"   Gusts: NA
Location:  27.17°S, 53.71°W
Report Text: SBCH 201800Z 13008KT 9999 FEW020 25/14 Q1018
Loading
Personal Weather Stations






























Interactive Weather Map
Tropical Storm Tracking
New forecast layout! Learn more

10-Day Weather Forecast

Advertisements
Track Severe Weather on mobile